sensor_id;sensor_type;location;lat;lon;timestamp;P1;durP1;ratioP1;P2;durP2;ratioP2
7338;SDS011;33747;49.524;8.390;2023-04-27T00:00:28;11.75;;;4.30;;
7338;SDS011;33747;49.524;8.390;2023-04-27T00:02:54;5.20;;;4.20;;
7338;SDS011;33747;49.524;8.390;2023-04-27T00:05:19;8.55;;;4.43;;
7338;SDS011;33747;49.524;8.390;2023-04-27T00:07:44;10.15;;;4.50;;
7338;SDS011;33747;49.524;8.390;2023-04-27T00:10:10;8.70;;;4.38;;
7338;SDS011;33747;49.524;8.390;2023-04-27T00:12:36;9.10;;;4.63;;
7338;SDS011;33747;49.524;8.390;2023-04-27T00:15:01;12.73;;;4.28;;
7338;SDS011;33747;49.524;8.390;2023-04-27T00:17:26;6.45;;;4.72;;
7338;SDS011;33747;49.524;8.390;2023-04-27T00:19:52;10.15;;;4.47;;
7338;SDS011;33747;49.524;8.390;2023-04-27T00:22:18;8.57;;;4.82;;
7338;SDS011;33747;49.524;8.390;2023-04-27T00:24:43;8.73;;;4.75;;
7338;SDS011;33747;49.524;8.390;2023-04-27T00:27:09;8.45;;;4.10;;
7338;SDS011;33747;49.524;8.390;2023-04-27T00:29:37;10.50;;;4.53;;
7338;SDS011;33747;49.524;8.390;2023-04-27T00:32:06;12.30;;;4.78;;
7338;SDS011;33747;49.524;8.390;2023-04-27T00:34:32;9.50;;;4.45;;
7338;SDS011;33747;49.524;8.390;2023-04-27T00:36:57;5.97;;;4.25;;
7338;SDS011;33747;49.524;8.390;2023-04-27T00:39:23;11.18;;;4.28;;
7338;SDS011;33747;49.524;8.390;2023-04-27T00:41:48;13.07;;;4.63;;
7338;SDS011;33747;49.524;8.390;2023-04-27T00:44:20;7.65;;;4.07;;
7338;SDS011;33747;49.524;8.390;2023-04-27T00:46:49;6.80;;;4.47;;
7338;SDS011;33747;49.524;8.390;2023-04-27T00:49:15;8.93;;;4.32;;
7338;SDS011;33747;49.524;8.390;2023-04-27T00:51:40;9.18;;;5.20;;
7338;SDS011;33747;49.524;8.390;2023-04-27T00:54:06;13.02;;;4.68;;
7338;SDS011;33747;49.524;8.390;2023-04-27T00:56:31;11.35;;;4.90;;
7338;SDS011;33747;49.524;8.390;2023-04-27T00:58:56;10.68;;;4.28;;
7338;SDS011;33747;49.524;8.390;2023-04-27T01:01:22;9.32;;;4.82;;
7338;SDS011;33747;49.524;8.390;2023-04-27T01:03:47;9.93;;;4.82;;
7338;SDS011;33747;49.524;8.390;2023-04-27T01:06:13;6.15;;;4.25;;
7338;SDS011;33747;49.524;8.390;2023-04-27T01:08:38;9.43;;;5.07;;
7338;SDS011;33747;49.524;8.390;2023-04-27T01:11:03;9.02;;;4.78;;
7338;SDS011;33747;49.524;8.390;2023-04-27T01:13:29;9.00;;;4.30;;
7338;SDS011;33747;49.524;8.390;2023-04-27T01:15:54;9.40;;;4.30;;
7338;SDS011;33747;49.524;8.390;2023-04-27T01:18:20;8.65;;;4.53;;
7338;SDS011;33747;49.524;8.390;2023-04-27T01:20:46;9.63;;;4.53;;
7338;SDS011;33747;49.524;8.390;2023-04-27T01:23:12;8.35;;;4.35;;
7338;SDS011;33747;49.524;8.390;2023-04-27T01:25:38;6.95;;;4.82;;
7338;SDS011;33747;49.524;8.390;2023-04-27T01:28:03;8.27;;;4.68;;
7338;SDS011;33747;49.524;8.390;2023-04-27T01:30:29;8.68;;;4.47;;
7338;SDS011;33747;49.524;8.390;2023-04-27T01:32:54;10.45;;;4.05;;
7338;SDS011;33747;49.524;8.390;2023-04-27T01:35:20;12.48;;;4.13;;
7338;SDS011;33747;49.524;8.390;2023-04-27T01:37:45;9.23;;;4.35;;
7338;SDS011;33747;49.524;8.390;2023-04-27T01:40:11;8.95;;;4.55;;
7338;SDS011;33747;49.524;8.390;2023-04-27T01:42:37;11.48;;;4.88;;
7338;SDS011;33747;49.524;8.390;2023-04-27T01:45:02;14.35;;;5.30;;
7338;SDS011;33747;49.524;8.390;2023-04-27T01:47:28;10.75;;;4.65;;
7338;SDS011;33747;49.524;8.390;2023-04-27T01:49:53;9.68;;;4.30;;
7338;SDS011;33747;49.524;8.390;2023-04-27T01:52:18;11.70;;;5.47;;
7338;SDS011;33747;49.524;8.390;2023-04-27T01:54:44;6.90;;;4.32;;
7338;SDS011;33747;49.524;8.390;2023-04-27T01:57:09;10.75;;;4.72;;
7338;SDS011;33747;49.524;8.390;2023-04-27T01:59:35;8.35;;;4.20;;
7338;SDS011;33747;49.524;8.390;2023-04-27T02:02:00;7.05;;;5.07;;
7338;SDS011;33747;49.524;8.390;2023-04-27T02:04:26;9.48;;;4.28;;
7338;SDS011;33747;49.524;8.390;2023-04-27T02:06:51;10.63;;;4.65;;
7338;SDS011;33747;49.524;8.390;2023-04-27T02:09:16;10.30;;;4.47;;
7338;SDS011;33747;49.524;8.390;2023-04-27T02:11:42;8.77;;;4.22;;
7338;SDS011;33747;49.524;8.390;2023-04-27T02:14:07;11.98;;;5.43;;
7338;SDS011;33747;49.524;8.390;2023-04-27T02:16:33;10.63;;;5.05;;
7338;SDS011;33747;49.524;8.390;2023-04-27T02:18:58;8.73;;;5.30;;
7338;SDS011;33747;49.524;8.390;2023-04-27T02:21:23;17.48;;;5.05;;
7338;SDS011;33747;49.524;8.390;2023-04-27T02:23:49;11.13;;;4.78;;
7338;SDS011;33747;49.524;8.390;2023-04-27T02:26:15;6.38;;;4.68;;
7338;SDS011;33747;49.524;8.390;2023-04-27T02:28:41;7.18;;;4.28;;
7338;SDS011;33747;49.524;8.390;2023-04-27T02:31:06;9.32;;;4.43;;
7338;SDS011;33747;49.524;8.390;2023-04-27T02:33:32;9.18;;;4.63;;
7338;SDS011;33747;49.524;8.390;2023-04-27T02:35:57;9.02;;;4.63;;
7338;SDS011;33747;49.524;8.390;2023-04-27T02:38:23;13.05;;;4.47;;
7338;SDS011;33747;49.524;8.390;2023-04-27T02:40:52;8.30;;;5.20;;
7338;SDS011;33747;49.524;8.390;2023-04-27T02:43:18;9.55;;;4.88;;
7338;SDS011;33747;49.524;8.390;2023-04-27T02:45:44;7.88;;;4.35;;
7338;SDS011;33747;49.524;8.390;2023-04-27T02:48:09;6.68;;;4.30;;
7338;SDS011;33747;49.524;8.390;2023-04-27T02:50:39;10.25;;;4.82;;
7338;SDS011;33747;49.524;8.390;2023-04-27T02:53:05;9.40;;;4.82;;
7338;SDS011;33747;49.524;8.390;2023-04-27T02:55:31;12.23;;;5.50;;
7338;SDS011;33747;49.524;8.390;2023-04-27T02:57:56;8.15;;;4.40;;
7338;SDS011;33747;49.524;8.390;2023-04-27T03:00:21;9.93;;;4.93;;
7338;SDS011;33747;49.524;8.390;2023-04-27T03:02:47;13.30;;;4.95;;
7338;SDS011;33747;49.524;8.390;2023-04-27T03:05:12;13.20;;;4.88;;
7338;SDS011;33747;49.524;8.390;2023-04-27T03:07:38;12.70;;;4.93;;
7338;SDS011;33747;49.524;8.390;2023-04-27T03:10:03;8.88;;;4.60;;
7338;SDS011;33747;49.524;8.390;2023-04-27T03:12:29;15.30;;;4.80;;
7338;SDS011;33747;49.524;8.390;2023-04-27T03:14:54;11.63;;;4.57;;
7338;SDS011;33747;49.524;8.390;2023-04-27T03:17:20;6.30;;;4.18;;
7338;SDS011;33747;49.524;8.390;2023-04-27T03:19:46;10.55;;;4.43;;
7338;SDS011;33747;49.524;8.390;2023-04-27T03:22:12;8.68;;;4.70;;
7338;SDS011;33747;49.524;8.390;2023-04-27T03:24:38;9.07;;;4.80;;
7338;SDS011;33747;49.524;8.390;2023-04-27T03:27:03;13.13;;;5.45;;
7338;SDS011;33747;49.524;8.390;2023-04-27T03:29:28;7.43;;;4.28;;
7338;SDS011;33747;49.524;8.390;2023-04-27T03:31:54;7.13;;;5.05;;
7338;SDS011;33747;49.524;8.390;2023-04-27T03:34:19;15.52;;;5.47;;
7338;SDS011;33747;49.524;8.390;2023-04-27T03:36:45;7.50;;;4.47;;
7338;SDS011;33747;49.524;8.390;2023-04-27T03:39:11;12.07;;;5.00;;
7338;SDS011;33747;49.524;8.390;2023-04-27T03:41:36;10.18;;;4.80;;
7338;SDS011;33747;49.524;8.390;2023-04-27T03:44:02;14.40;;;5.05;;
7338;SDS011;33747;49.524;8.390;2023-04-27T03:46:27;9.43;;;4.57;;
7338;SDS011;33747;49.524;8.390;2023-04-27T03:48:52;10.20;;;4.72;;
7338;SDS011;33747;49.524;8.390;2023-04-27T03:51:18;10.60;;;3.95;;
7338;SDS011;33747;49.524;8.390;2023-04-27T03:53:43;14.63;;;4.65;;
7338;SDS011;33747;49.524;8.390;2023-04-27T03:56:09;9.52;;;4.18;;
7338;SDS011;33747;49.524;8.390;2023-04-27T03:58:34;11.95;;;5.40;;
7338;SDS011;33747;49.524;8.390;2023-04-27T04:00:59;14.57;;;4.88;;
7338;SDS011;33747;49.524;8.390;2023-04-27T04:03:25;8.00;;;4.68;;
7338;SDS011;33747;49.524;8.390;2023-04-27T04:05:50;10.48;;;4.95;;
7338;SDS011;33747;49.524;8.390;2023-04-27T04:08:16;9.75;;;5.22;;
7338;SDS011;33747;49.524;8.390;2023-04-27T04:10:41;6.85;;;4.22;;
7338;SDS011;33747;49.524;8.390;2023-04-27T04:13:06;11.05;;;4.95;;
7338;SDS011;33747;49.524;8.390;2023-04-27T04:15:32;10.35;;;5.38;;
7338;SDS011;33747;49.524;8.390;2023-04-27T04:17:57;11.90;;;6.75;;
7338;SDS011;33747;49.524;8.390;2023-04-27T04:20:23;9.27;;;4.75;;
7338;SDS011;33747;49.524;8.390;2023-04-27T04:22:48;7.07;;;4.28;;
7338;SDS011;33747;49.524;8.390;2023-04-27T04:25:13;13.85;;;4.88;;
7338;SDS011;33747;49.524;8.390;2023-04-27T04:27:39;9.65;;;4.75;;
7338;SDS011;33747;49.524;8.390;2023-04-27T04:30:05;10.07;;;4.90;;
7338;SDS011;33747;49.524;8.390;2023-04-27T04:32:31;14.55;;;5.43;;
7338;SDS011;33747;49.524;8.390;2023-04-27T04:34:57;10.75;;;4.95;;
7338;SDS011;33747;49.524;8.390;2023-04-27T04:37:23;8.88;;;4.95;;
7338;SDS011;33747;49.524;8.390;2023-04-27T04:39:48;10.10;;;4.72;;
7338;SDS011;33747;49.524;8.390;2023-04-27T04:42:13;12.77;;;5.20;;
7338;SDS011;33747;49.524;8.390;2023-04-27T04:44:39;8.52;;;4.22;;
7338;SDS011;33747;49.524;8.390;2023-04-27T04:47:04;8.68;;;4.93;;
7338;SDS011;33747;49.524;8.390;2023-04-27T04:49:30;11.55;;;4.45;;
7338;SDS011;33747;49.524;8.390;2023-04-27T04:51:56;11.00;;;4.68;;
7338;SDS011;33747;49.524;8.390;2023-04-27T04:54:21;11.32;;;5.10;;
7338;SDS011;33747;49.524;8.390;2023-04-27T04:56:46;10.23;;;4.28;;
7338;SDS011;33747;49.524;8.390;2023-04-27T04:59:12;10.57;;;4.80;;
7338;SDS011;33747;49.524;8.390;2023-04-27T05:01:37;12.18;;;5.32;;
7338;SDS011;33747;49.524;8.390;2023-04-27T05:04:03;8.57;;;5.22;;
7338;SDS011;33747;49.524;8.390;2023-04-27T05:06:28;14.20;;;5.40;;
7338;SDS011;33747;49.524;8.390;2023-04-27T05:08:53;19.08;;;5.55;;
7338;SDS011;33747;49.524;8.390;2023-04-27T05:11:19;13.18;;;5.05;;
7338;SDS011;33747;49.524;8.390;2023-04-27T05:13:44;8.45;;;5.32;;
7338;SDS011;33747;49.524;8.390;2023-04-27T05:16:10;11.30;;;5.55;;
7338;SDS011;33747;49.524;8.390;2023-04-27T05:18:36;10.48;;;5.18;;
7338;SDS011;33747;49.524;8.390;2023-04-27T05:21:01;12.55;;;5.20;;
7338;SDS011;33747;49.524;8.390;2023-04-27T05:23:26;14.63;;;5.70;;
7338;SDS011;33747;49.524;8.390;2023-04-27T05:25:52;12.75;;;5.22;;
7338;SDS011;33747;49.524;8.390;2023-04-27T05:28:17;11.35;;;5.18;;
7338;SDS011;33747;49.524;8.390;2023-04-27T05:30:43;9.02;;;5.20;;
7338;SDS011;33747;49.524;8.390;2023-04-27T05:33:08;8.52;;;5.05;;
7338;SDS011;33747;49.524;8.390;2023-04-27T05:35:34;12.80;;;5.55;;
7338;SDS011;33747;49.524;8.390;2023-04-27T05:37:59;8.75;;;5.00;;
7338;SDS011;33747;49.524;8.390;2023-04-27T05:40:25;11.80;;;5.25;;
7338;SDS011;33747;49.524;8.390;2023-04-27T05:42:50;11.77;;;5.00;;
7338;SDS011;33747;49.524;8.390;2023-04-27T05:45:16;8.02;;;4.88;;
7338;SDS011;33747;49.524;8.390;2023-04-27T05:47:41;8.27;;;4.63;;
7338;SDS011;33747;49.524;8.390;2023-04-27T05:50:07;14.40;;;5.25;;
7338;SDS011;33747;49.524;8.390;2023-04-27T05:52:32;10.73;;;5.20;;
7338;SDS011;33747;49.524;8.390;2023-04-27T05:54:58;11.38;;;5.43;;
7338;SDS011;33747;49.524;8.390;2023-04-27T05:57:23;16.70;;;4.97;;
7338;SDS011;33747;49.524;8.390;2023-04-27T05:59:49;9.82;;;5.85;;
7338;SDS011;33747;49.524;8.390;2023-04-27T06:02:15;12.50;;;5.60;;
7338;SDS011;33747;49.524;8.390;2023-04-27T06:04:40;11.23;;;5.45;;
7338;SDS011;33747;49.524;8.390;2023-04-27T06:07:06;9.55;;;5.55;;
7338;SDS011;33747;49.524;8.390;2023-04-27T06:09:33;11.90;;;5.40;;
7338;SDS011;33747;49.524;8.390;2023-04-27T06:11:58;10.88;;;4.57;;
7338;SDS011;33747;49.524;8.390;2023-04-27T06:14:24;15.00;;;4.80;;
7338;SDS011;33747;49.524;8.390;2023-04-27T06:16:49;24.30;;;5.55;;
7338;SDS011;33747;49.524;8.390;2023-04-27T06:19:15;11.38;;;4.75;;
7338;SDS011;33747;49.524;8.390;2023-04-27T06:21:40;10.60;;;5.32;;
7338;SDS011;33747;49.524;8.390;2023-04-27T06:24:05;15.15;;;5.28;;
7338;SDS011;33747;49.524;8.390;2023-04-27T06:26:31;9.35;;;5.10;;
7338;SDS011;33747;49.524;8.390;2023-04-27T06:28:56;7.97;;;5.05;;
7338;SDS011;33747;49.524;8.390;2023-04-27T06:31:22;12.40;;;4.90;;
7338;SDS011;33747;49.524;8.390;2023-04-27T06:33:47;9.05;;;5.05;;
7338;SDS011;33747;49.524;8.390;2023-04-27T06:36:12;10.23;;;5.38;;
7338;SDS011;33747;49.524;8.390;2023-04-27T06:38:38;15.30;;;4.88;;
7338;SDS011;33747;49.524;8.390;2023-04-27T06:41:04;9.07;;;4.68;;
7338;SDS011;33747;49.524;8.390;2023-04-27T06:43:29;16.52;;;5.00;;
7338;SDS011;33747;49.524;8.390;2023-04-27T06:45:55;8.13;;;4.82;;
7338;SDS011;33747;49.524;8.390;2023-04-27T06:48:20;13.30;;;5.45;;
7338;SDS011;33747;49.524;8.390;2023-04-27T06:50:45;14.38;;;4.82;;
7338;SDS011;33747;49.524;8.390;2023-04-27T06:53:11;13.10;;;5.38;;
7338;SDS011;33747;49.524;8.390;2023-04-27T06:55:37;12.25;;;4.13;;
7338;SDS011;33747;49.524;8.390;2023-04-27T06:58:02;13.45;;;5.22;;
7338;SDS011;33747;49.524;8.390;2023-04-27T07:00:28;12.05;;;4.40;;
7338;SDS011;33747;49.524;8.390;2023-04-27T07:02:53;13.90;;;4.90;;
7338;SDS011;33747;49.524;8.390;2023-04-27T07:05:19;13.50;;;5.03;;
7338;SDS011;33747;49.524;8.390;2023-04-27T07:07:44;13.93;;;4.68;;
7338;SDS011;33747;49.524;8.390;2023-04-27T07:10:10;14.45;;;4.43;;
7338;SDS011;33747;49.524;8.390;2023-04-27T07:12:36;9.23;;;4.35;;
7338;SDS011;33747;49.524;8.390;2023-04-27T07:15:01;8.15;;;4.40;;
7338;SDS011;33747;49.524;8.390;2023-04-27T07:17:28;10.93;;;4.85;;
7338;SDS011;33747;49.524;8.390;2023-04-27T07:19:53;12.90;;;4.07;;
7338;SDS011;33747;49.524;8.390;2023-04-27T07:22:19;20.38;;;4.60;;
7338;SDS011;33747;49.524;8.390;2023-04-27T07:24:45;9.68;;;4.18;;
7338;SDS011;33747;49.524;8.390;2023-04-27T07:27:10;12.43;;;4.93;;
7338;SDS011;33747;49.524;8.390;2023-04-27T07:29:36;15.07;;;5.22;;
7338;SDS011;33747;49.524;8.390;2023-04-27T07:32:03;13.63;;;4.82;;
7338;SDS011;33747;49.524;8.390;2023-04-27T07:34:30;9.55;;;4.53;;
7338;SDS011;33747;49.524;8.390;2023-04-27T07:36:55;9.40;;;4.20;;
7338;SDS011;33747;49.524;8.390;2023-04-27T07:39:21;10.80;;;4.75;;
7338;SDS011;33747;49.524;8.390;2023-04-27T07:41:46;8.60;;;4.50;;
7338;SDS011;33747;49.524;8.390;2023-04-27T07:44:12;11.45;;;4.72;;
7338;SDS011;33747;49.524;8.390;2023-04-27T07:46:37;10.50;;;4.97;;
7338;SDS011;33747;49.524;8.390;2023-04-27T07:49:03;12.50;;;5.00;;
7338;SDS011;33747;49.524;8.390;2023-04-27T07:51:28;9.35;;;5.35;;
7338;SDS011;33747;49.524;8.390;2023-04-27T07:53:53;11.50;;;5.00;;
7338;SDS011;33747;49.524;8.390;2023-04-27T07:56:19;7.63;;;4.63;;
7338;SDS011;33747;49.524;8.390;2023-04-27T07:58:45;9.02;;;5.22;;
7338;SDS011;33747;49.524;8.390;2023-04-27T08:01:10;8.68;;;4.60;;
7338;SDS011;33747;49.524;8.390;2023-04-27T08:03:36;11.98;;;4.50;;
7338;SDS011;33747;49.524;8.390;2023-04-27T08:06:01;11.32;;;4.47;;
7338;SDS011;33747;49.524;8.390;2023-04-27T08:08:28;11.57;;;4.15;;
7338;SDS011;33747;49.524;8.390;2023-04-27T08:10:54;5.35;;;3.13;;
7338;SDS011;33747;49.524;8.390;2023-04-27T08:13:19;7.28;;;3.78;;
7338;SDS011;33747;49.524;8.390;2023-04-27T08:15:44;8.48;;;4.32;;
7338;SDS011;33747;49.524;8.390;2023-04-27T08:18:10;9.60;;;3.58;;
7338;SDS011;33747;49.524;8.390;2023-04-27T08:20:35;9.40;;;4.45;;
7338;SDS011;33747;49.524;8.390;2023-04-27T08:23:00;12.02;;;3.45;;
7338;SDS011;33747;49.524;8.390;2023-04-27T08:25:26;7.43;;;3.83;;
7338;SDS011;33747;49.524;8.390;2023-04-27T08:27:51;6.22;;;3.83;;
7338;SDS011;33747;49.524;8.390;2023-04-27T08:30:17;8.10;;;2.70;;
7338;SDS011;33747;49.524;8.390;2023-04-27T08:32:42;9.32;;;3.00;;
7338;SDS011;33747;49.524;8.390;2023-04-27T08:35:07;5.03;;;2.72;;
7338;SDS011;33747;49.524;8.390;2023-04-27T08:37:33;6.93;;;2.45;;
7338;SDS011;33747;49.524;8.390;2023-04-27T08:39:58;9.77;;;2.95;;
7338;SDS011;33747;49.524;8.390;2023-04-27T08:42:24;6.97;;;3.50;;
7338;SDS011;33747;49.524;8.390;2023-04-27T08:44:49;9.00;;;3.22;;
7338;SDS011;33747;49.524;8.390;2023-04-27T08:47:15;8.60;;;3.78;;
7338;SDS011;33747;49.524;8.390;2023-04-27T08:49:40;13.60;;;4.15;;
7338;SDS011;33747;49.524;8.390;2023-04-27T08:52:13;5.72;;;3.13;;
7338;SDS011;33747;49.524;8.390;2023-04-27T08:54:38;7.47;;;3.40;;
7338;SDS011;33747;49.524;8.390;2023-04-27T08:57:08;10.65;;;3.10;;
7338;SDS011;33747;49.524;8.390;2023-04-27T08:59:36;8.35;;;3.42;;
7338;SDS011;33747;49.524;8.390;2023-04-27T09:02:02;9.77;;;3.75;;
7338;SDS011;33747;49.524;8.390;2023-04-27T09:04:37;8.73;;;3.72;;
7338;SDS011;33747;49.524;8.390;2023-04-27T09:07:13;7.20;;;3.13;;
7338;SDS011;33747;49.524;8.390;2023-04-27T09:09:39;5.97;;;3.25;;
7338;SDS011;33747;49.524;8.390;2023-04-27T09:12:14;12.43;;;3.92;;
7338;SDS011;33747;49.524;8.390;2023-04-27T09:15:05;15.20;;;4.20;;
7338;SDS011;33747;49.524;8.390;2023-04-27T09:17:30;9.10;;;4.10;;
7338;SDS011;33747;49.524;8.390;2023-04-27T09:20:02;13.95;;;3.90;;
7338;SDS011;33747;49.524;8.390;2023-04-27T09:22:41;11.02;;;4.45;;
7338;SDS011;33747;49.524;8.390;2023-04-27T09:25:10;10.48;;;4.20;;
7338;SDS011;33747;49.524;8.390;2023-04-27T09:27:45;10.75;;;3.92;;
7338;SDS011;33747;49.524;8.390;2023-04-27T09:30:12;10.13;;;4.25;;
7338;SDS011;33747;49.524;8.390;2023-04-27T09:32:38;5.50;;;4.15;;
7338;SDS011;33747;49.524;8.390;2023-04-27T09:35:03;11.77;;;4.65;;
7338;SDS011;33747;49.524;8.390;2023-04-27T09:37:40;7.53;;;3.90;;
7338;SDS011;33747;49.524;8.390;2023-04-27T09:40:05;10.63;;;3.90;;
7338;SDS011;33747;49.524;8.390;2023-04-27T09:42:31;9.40;;;4.30;;
7338;SDS011;33747;49.524;8.390;2023-04-27T09:44:57;11.38;;;4.20;;
7338;SDS011;33747;49.524;8.390;2023-04-27T09:47:23;5.47;;;3.90;;
7338;SDS011;33747;49.524;8.390;2023-04-27T09:49:52;7.35;;;4.30;;
7338;SDS011;33747;49.524;8.390;2023-04-27T09:52:17;6.80;;;3.83;;
7338;SDS011;33747;49.524;8.390;2023-04-27T09:54:43;8.85;;;4.57;;
7338;SDS011;33747;49.524;8.390;2023-04-27T09:57:16;7.93;;;4.00;;
7338;SDS011;33747;49.524;8.390;2023-04-27T10:08:44;10.02;;;4.07;;
7338;SDS011;33747;49.524;8.390;2023-04-27T10:11:14;8.00;;;3.65;;
7338;SDS011;33747;49.524;8.390;2023-04-27T10:13:49;7.82;;;4.05;;
7338;SDS011;33747;49.524;8.390;2023-04-27T10:16:16;7.40;;;3.95;;
7338;SDS011;33747;49.524;8.390;2023-04-27T10:18:50;6.70;;;3.65;;
7338;SDS011;33747;49.524;8.390;2023-04-27T10:21:17;6.70;;;3.75;;
7338;SDS011;33747;49.524;8.390;2023-04-27T10:23:46;9.02;;;4.38;;
7338;SDS011;33747;49.524;8.390;2023-04-27T10:26:26;8.38;;;4.38;;
7338;SDS011;33747;49.524;8.390;2023-04-27T10:28:55;13.73;;;4.53;;
7338;SDS011;33747;49.524;8.390;2023-04-27T10:31:34;10.98;;;4.43;;
7338;SDS011;33747;49.524;8.390;2023-04-27T10:34:09;12.32;;;4.53;;
7338;SDS011;33747;49.524;8.390;2023-04-27T10:36:36;9.20;;;4.18;;
7338;SDS011;33747;49.524;8.390;2023-04-27T10:39:12;14.60;;;4.57;;
7338;SDS011;33747;49.524;8.390;2023-04-27T10:41:54;8.80;;;4.07;;
7338;SDS011;33747;49.524;8.390;2023-04-27T10:44:25;8.65;;;3.85;;
7338;SDS011;33747;49.524;8.390;2023-04-27T10:46:55;8.40;;;3.63;;
7338;SDS011;33747;49.524;8.390;2023-04-27T10:49:23;7.38;;;3.45;;
7338;SDS011;33747;49.524;8.390;2023-04-27T10:51:51;7.28;;;4.10;;
7338;SDS011;33747;49.524;8.390;2023-04-27T10:54:16;6.38;;;3.90;;
7338;SDS011;33747;49.524;8.390;2023-04-27T10:56:42;6.82;;;4.25;;
7338;SDS011;33747;49.524;8.390;2023-04-27T10:59:08;16.73;;;3.90;;
7338;SDS011;33747;49.524;8.390;2023-04-27T11:01:34;10.07;;;3.95;;
7338;SDS011;33747;49.524;8.390;2023-04-27T11:04:00;11.68;;;3.58;;
7338;SDS011;33747;49.524;8.390;2023-04-27T11:06:29;8.63;;;3.28;;
7338;SDS011;33747;49.524;8.390;2023-04-27T11:08:57;6.75;;;3.20;;
7338;SDS011;33747;49.524;8.390;2023-04-27T11:11:22;6.78;;;3.75;;
7338;SDS011;33747;49.524;8.390;2023-04-27T11:13:49;13.55;;;4.80;;
7338;SDS011;33747;49.524;8.390;2023-04-27T11:16:17;11.93;;;3.63;;
7338;SDS011;33747;49.524;8.390;2023-04-27T11:18:43;10.23;;;3.55;;
7338;SDS011;33747;49.524;8.390;2023-04-27T11:21:10;6.40;;;3.30;;
7338;SDS011;33747;49.524;8.390;2023-04-27T11:23:36;6.07;;;3.53;;
7338;SDS011;33747;49.524;8.390;2023-04-27T11:26:09;8.30;;;2.90;;
7338;SDS011;33747;49.524;8.390;2023-04-27T11:29:00;9.55;;;4.07;;
7338;SDS011;33747;49.524;8.390;2023-04-27T11:31:42;7.63;;;2.83;;
7338;SDS011;33747;49.524;8.390;2023-04-27T11:34:16;6.30;;;2.95;;
7338;SDS011;33747;49.524;8.390;2023-04-27T11:36:42;17.65;;;3.80;;
7338;SDS011;33747;49.524;8.390;2023-04-27T11:39:08;7.93;;;3.60;;
7338;SDS011;33747;49.524;8.390;2023-04-27T11:41:41;11.68;;;3.75;;
7338;SDS011;33747;49.524;8.390;2023-04-27T11:44:10;5.75;;;3.17;;
7338;SDS011;33747;49.524;8.390;2023-04-27T11:46:35;7.47;;;2.83;;
7338;SDS011;33747;49.524;8.390;2023-04-27T11:49:02;10.38;;;3.75;;
7338;SDS011;33747;49.524;8.390;2023-04-27T11:51:28;6.40;;;3.10;;
7338;SDS011;33747;49.524;8.390;2023-04-27T11:54:50;7.25;;;3.42;;
7338;SDS011;33747;49.524;8.390;2023-04-27T11:57:17;5.55;;;3.30;;
7338;SDS011;33747;49.524;8.390;2023-04-27T11:59:49;8.50;;;3.78;;
7338;SDS011;33747;49.524;8.390;2023-04-27T12:02:14;4.70;;;3.17;;
7338;SDS011;33747;49.524;8.390;2023-04-27T12:04:40;6.47;;;2.97;;
7338;SDS011;33747;49.524;8.390;2023-04-27T12:07:06;5.50;;;2.67;;
7338;SDS011;33747;49.524;8.390;2023-04-27T12:09:32;10.60;;;2.97;;
7338;SDS011;33747;49.524;8.390;2023-04-27T12:11:58;6.72;;;2.78;;
7338;SDS011;33747;49.524;8.390;2023-04-27T12:14:23;6.45;;;2.92;;
7338;SDS011;33747;49.524;8.390;2023-04-27T12:16:48;6.70;;;3.10;;
7338;SDS011;33747;49.524;8.390;2023-04-27T12:19:14;8.68;;;3.42;;
7338;SDS011;33747;49.524;8.390;2023-04-27T12:21:39;5.45;;;3.38;;
7338;SDS011;33747;49.524;8.390;2023-04-27T12:24:05;13.82;;;3.83;;
7338;SDS011;33747;49.524;8.390;2023-04-27T12:26:30;6.45;;;3.22;;
7338;SDS011;33747;49.524;8.390;2023-04-27T12:28:55;9.52;;;3.20;;
7338;SDS011;33747;49.524;8.390;2023-04-27T12:31:21;8.10;;;2.83;;
7338;SDS011;33747;49.524;8.390;2023-04-27T12:33:49;6.20;;;3.20;;
7338;SDS011;33747;49.524;8.390;2023-04-27T12:36:15;14.25;;;3.45;;
7338;SDS011;33747;49.524;8.390;2023-04-27T12:38:41;8.20;;;3.08;;
7338;SDS011;33747;49.524;8.390;2023-04-27T12:41:06;6.07;;;3.55;;
7338;SDS011;33747;49.524;8.390;2023-04-27T12:43:32;11.13;;;3.45;;
7338;SDS011;33747;49.524;8.390;2023-04-27T12:45:59;11.75;;;3.25;;
7338;SDS011;33747;49.524;8.390;2023-04-27T12:48:24;8.30;;;3.63;;
7338;SDS011;33747;49.524;8.390;2023-04-27T12:50:50;10.77;;;2.83;;
7338;SDS011;33747;49.524;8.390;2023-04-27T12:53:15;6.60;;;3.17;;
7338;SDS011;33747;49.524;8.390;2023-04-27T12:55:41;7.30;;;3.53;;
7338;SDS011;33747;49.524;8.390;2023-04-27T12:58:06;7.22;;;2.47;;
7338;SDS011;33747;49.524;8.390;2023-04-27T13:00:31;5.15;;;3.17;;
7338;SDS011;33747;49.524;8.390;2023-04-27T13:02:58;8.95;;;3.03;;
7338;SDS011;33747;49.524;8.390;2023-04-27T13:05:23;4.18;;;2.97;;
7338;SDS011;33747;49.524;8.390;2023-04-27T13:07:48;7.05;;;2.83;;
7338;SDS011;33747;49.524;8.390;2023-04-27T13:10:14;8.48;;;3.03;;
7338;SDS011;33747;49.524;8.390;2023-04-27T13:12:39;6.15;;;2.40;;
7338;SDS011;33747;49.524;8.390;2023-04-27T13:15:05;6.30;;;2.95;;
7338;SDS011;33747;49.524;8.390;2023-04-27T13:17:31;6.90;;;2.35;;
7338;SDS011;33747;49.524;8.390;2023-04-27T13:19:57;5.18;;;2.28;;
7338;SDS011;33747;49.524;8.390;2023-04-27T13:22:22;7.47;;;2.75;;
7338;SDS011;33747;49.524;8.390;2023-04-27T13:24:47;6.15;;;2.90;;
7338;SDS011;33747;49.524;8.390;2023-04-27T13:27:13;5.05;;;2.45;;
7338;SDS011;33747;49.524;8.390;2023-04-27T13:29:38;6.80;;;2.45;;
7338;SDS011;33747;49.524;8.390;2023-04-27T13:32:04;6.88;;;3.00;;
7338;SDS011;33747;49.524;8.390;2023-04-27T13:34:29;11.82;;;3.33;;
7338;SDS011;33747;49.524;8.390;2023-04-27T13:36:54;5.85;;;2.50;;
7338;SDS011;33747;49.524;8.390;2023-04-27T13:39:20;5.35;;;2.85;;
7338;SDS011;33747;49.524;8.390;2023-04-27T13:41:46;8.38;;;2.50;;
7338;SDS011;33747;49.524;8.390;2023-04-27T13:44:11;4.68;;;2.83;;
7338;SDS011;33747;49.524;8.390;2023-04-27T13:46:36;5.03;;;2.92;;
7338;SDS011;33747;49.524;8.390;2023-04-27T13:49:02;4.03;;;2.30;;
7338;SDS011;33747;49.524;8.390;2023-04-27T13:51:28;5.95;;;2.45;;
7338;SDS011;33747;49.524;8.390;2023-04-27T13:53:53;7.43;;;2.63;;
7338;SDS011;33747;49.524;8.390;2023-04-27T13:56:19;5.38;;;2.60;;
7338;SDS011;33747;49.524;8.390;2023-04-27T13:58:44;7.68;;;2.80;;
7338;SDS011;33747;49.524;8.390;2023-04-27T14:01:10;11.13;;;3.10;;
7338;SDS011;33747;49.524;8.390;2023-04-27T14:03:36;7.20;;;3.22;;
7338;SDS011;33747;49.524;8.390;2023-04-27T14:06:01;6.15;;;2.80;;
7338;SDS011;33747;49.524;8.390;2023-04-27T14:08:27;13.18;;;3.53;;
7338;SDS011;33747;49.524;8.390;2023-04-27T14:10:52;7.18;;;2.70;;
7338;SDS011;33747;49.524;8.390;2023-04-27T14:13:18;10.00;;;3.40;;
7338;SDS011;33747;49.524;8.390;2023-04-27T14:15:44;6.13;;;2.70;;
7338;SDS011;33747;49.524;8.390;2023-04-27T14:18:09;10.45;;;3.30;;
7338;SDS011;33747;49.524;8.390;2023-04-27T14:20:35;9.93;;;3.00;;
7338;SDS011;33747;49.524;8.390;2023-04-27T14:23:02;7.88;;;2.70;;
7338;SDS011;33747;49.524;8.390;2023-04-27T14:25:28;11.02;;;2.97;;
7338;SDS011;33747;49.524;8.390;2023-04-27T14:27:56;7.82;;;2.70;;
7338;SDS011;33747;49.524;8.390;2023-04-27T14:30:25;5.88;;;3.40;;
7338;SDS011;33747;49.524;8.390;2023-04-27T14:32:50;4.93;;;2.90;;
7338;SDS011;33747;49.524;8.390;2023-04-27T14:35:16;6.10;;;3.15;;
7338;SDS011;33747;49.524;8.390;2023-04-27T14:37:42;8.88;;;2.22;;
7338;SDS011;33747;49.524;8.390;2023-04-27T14:40:07;5.50;;;2.50;;
7338;SDS011;33747;49.524;8.390;2023-04-27T14:42:33;9.90;;;2.83;;
7338;SDS011;33747;49.524;8.390;2023-04-27T14:44:59;6.93;;;2.03;;
7338;SDS011;33747;49.524;8.390;2023-04-27T14:47:24;5.32;;;2.47;;
7338;SDS011;33747;49.524;8.390;2023-04-27T14:49:50;3.13;;;2.13;;
7338;SDS011;33747;49.524;8.390;2023-04-27T14:52:15;5.55;;;2.28;;
7338;SDS011;33747;49.524;8.390;2023-04-27T14:54:40;6.20;;;2.55;;
7338;SDS011;33747;49.524;8.390;2023-04-27T14:57:06;7.28;;;2.65;;
7338;SDS011;33747;49.524;8.390;2023-04-27T14:59:31;7.93;;;2.78;;